createdAt,value
2022-09-16T00:00:11.367Z,98567.41
2022-09-16T00:02:40.199Z,98568.25
2022-09-16T00:05:07.818Z,98561.03
2022-09-16T00:07:40.327Z,98569.31
2022-09-16T00:10:08.821Z,98572.69
2022-09-16T00:12:35.953Z,98573.97
2022-09-16T00:15:05.241Z,98573.84
2022-09-16T00:17:42.569Z,98574.16
2022-09-16T00:20:11.275Z,98570.78
2022-09-16T00:22:39.359Z,98572.69
2022-09-16T00:25:06.890Z,98564.59
2022-09-16T00:27:33.958Z,98568.22
2022-09-16T00:30:03.095Z,98567.81
2022-09-16T00:32:36.996Z,98568.53
2022-09-16T00:35:04.500Z,98568.31
2022-09-16T00:37:33.895Z,98568.00
2022-09-16T00:40:12.178Z,98564.72
2022-09-16T00:42:41.216Z,98559.09
2022-09-16T00:45:17.564Z,98566.41
2022-09-16T00:47:51.640Z,98563.75
2022-09-16T00:50:36.518Z,98572.66
2022-09-16T00:53:07.845Z,98578.59
2022-09-16T00:55:41.342Z,98579.13
2022-09-16T00:58:16.099Z,98574.13
2022-09-16T01:00:45.223Z,98573.81
2022-09-16T01:03:16.330Z,98580.25
2022-09-16T01:05:51.732Z,98584.09
2022-09-16T01:08:18.747Z,98592.91
2022-09-16T01:10:46.022Z,98590.03
2022-09-16T01:13:16.097Z,98600.19
2022-09-16T01:15:57.622Z,98594.69
2022-09-16T01:19:09.272Z,98594.25
2022-09-16T01:22:18.499Z,98599.75
2022-09-16T01:25:01.751Z,98595.72
2022-09-16T01:27:55.489Z,98604.84
2022-09-16T01:30:53.129Z,98600.72
2022-09-16T01:33:57.368Z,98607.19
2022-09-16T01:36:45.222Z,98614.91
2022-09-16T01:39:44.706Z,98606.31
2022-09-16T01:42:37.225Z,98610.13
2022-09-16T01:45:24.350Z,98606.69
2022-09-16T01:48:09.810Z,98618.09
2022-09-16T01:51:10.820Z,98613.00
2022-09-16T01:54:07.515Z,98597.69
2022-09-16T01:56:59.932Z,98611.97
2022-09-16T01:59:41.529Z,98611.03
2022-09-16T02:02:33.208Z,98599.03
2022-09-16T02:05:05.401Z,98614.00
2022-09-16T02:07:37.836Z,98619.66
2022-09-16T02:10:29.861Z,98615.50
2022-09-16T02:13:05.576Z,98613.81
2022-09-16T02:15:34.583Z,98602.09
2022-09-16T02:18:11.281Z,98613.53
2022-09-16T02:20:45.291Z,98610.97
2022-09-16T02:23:25.959Z,98603.63
2022-09-16T02:25:56.897Z,98606.16
2022-09-16T02:28:31.103Z,98603.50
2022-09-16T02:31:05.789Z,98611.44
2022-09-16T02:34:04.033Z,98607.94
2022-09-16T02:36:32.711Z,98605.69
2022-09-16T02:39:08.867Z,98615.53
2022-09-16T02:41:38.779Z,98612.31
2022-09-16T02:44:05.949Z,98616.66
2022-09-16T02:47:01.630Z,98613.53
2022-09-16T02:49:53.002Z,98615.72
2022-09-16T02:52:43.574Z,98614.09
2022-09-16T02:55:30.864Z,98618.63
2022-09-16T02:58:01.030Z,98607.38
2022-09-16T03:00:30.457Z,98620.53
2022-09-16T03:02:57.470Z,98615.91
2022-09-16T03:05:32.227Z,98617.00
2022-09-16T03:08:04.378Z,98618.25
2022-09-16T03:10:40.026Z,98606.22
2022-09-16T03:13:40.223Z,98614.22
2022-09-16T03:16:27.181Z,98614.00
2022-09-16T03:19:05.875Z,98605.38
2022-09-16T03:22:11.436Z,98604.91
2022-09-16T03:25:08.869Z,98622.31
2022-09-16T03:27:58.051Z,98610.09
2022-09-16T03:30:25.164Z,98599.97
2022-09-16T03:33:05.935Z,98596.94
2022-09-16T03:35:45.890Z,98600.38
2022-09-16T03:38:14.506Z,98605.94
2022-09-16T03:40:43.156Z,98607.00
2022-09-16T03:43:16.352Z,98613.63
2022-09-16T03:45:44.172Z,98614.16
2022-09-16T03:48:13.385Z,98609.47
2022-09-16T03:50:51.686Z,98602.75
2022-09-16T03:53:18.743Z,98601.94
2022-09-16T03:55:45.891Z,98582.28
2022-09-16T03:58:15.954Z,98578.53
2022-09-16T04:00:51.288Z,98594.09
2022-09-16T04:03:19.459Z,98599.03
2022-09-16T04:05:56.210Z,98596.94
2022-09-16T04:08:29.357Z,98600.38
2022-09-16T04:11:07.380Z,98588.44
2022-09-16T04:13:36.715Z,98592.59
2022-09-16T04:16:08.980Z,98587.28
2022-09-16T04:18:49.579Z,98595.72
2022-09-16T04:21:21.677Z,98592.78
2022-09-16T04:23:50.828Z,98598.88
2022-09-16T04:26:18.872Z,98596.22
2022-09-16T04:28:47.216Z,98596.91
2022-09-16T04:31:16.942Z,98589.59
2022-09-16T04:33:44.229Z,98589.28
2022-09-16T04:36:17.021Z,98596.47
2022-09-16T04:38:50.261Z,98601.22
2022-09-16T04:41:25.539Z,98605.59
2022-09-16T04:43:58.331Z,98612.59
2022-09-16T04:46:27.508Z,98600.66
2022-09-16T04:49:01.141Z,98598.75
2022-09-16T04:51:31.304Z,98600.75
2022-09-16T04:54:03.475Z,98602.59
2022-09-16T04:56:33.207Z,98595.25
2022-09-16T04:59:10.868Z,98605.13
2022-09-16T05:01:39.827Z,98605.50
2022-09-16T05:04:19.004Z,98602.47
2022-09-16T05:06:52.194Z,98604.16
2022-09-16T05:09:30.489Z,98617.50
2022-09-16T05:12:04.960Z,98609.34
2022-09-16T05:14:48.322Z,98604.53
2022-09-16T05:17:27.857Z,98608.50
2022-09-16T05:20:02.568Z,98608.69
2022-09-16T05:22:29.604Z,98611.72
2022-09-16T05:24:56.606Z,98619.00
2022-09-16T05:27:48.902Z,98614.16
2022-09-16T05:30:25.770Z,98616.34
2022-09-16T05:32:56.285Z,98620.63
2022-09-16T05:35:23.367Z,98621.94
2022-09-16T05:37:58.495Z,98613.03
2022-09-16T05:40:29.535Z,98624.28
2022-09-16T05:43:00.782Z,98626.84
2022-09-16T05:45:35.476Z,98625.75
2022-09-16T05:48:05.718Z,98630.09
2022-09-16T05:50:33.844Z,98617.69
2022-09-16T05:53:31.867Z,98625.97
2022-09-16T05:56:05.903Z,98630.16
2022-09-16T05:58:35.617Z,98622.31
2022-09-16T06:01:17.086Z,98630.81
2022-09-16T06:03:46.651Z,98638.00
2022-09-16T06:06:24.491Z,98627.63
2022-09-16T06:09:11.905Z,98627.63
2022-09-16T06:12:01.947Z,98638.59
2022-09-16T06:14:39.136Z,98629.31
2022-09-16T06:17:06.532Z,98627.38
2022-09-16T06:19:39.661Z,98619.78
2022-09-16T06:22:12.642Z,98630.56
2022-09-16T06:24:47.521Z,98626.22
2022-09-16T06:27:23.691Z,98621.94
2022-09-16T06:29:52.561Z,98618.81
2022-09-16T06:32:23.747Z,98625.25
2022-09-16T06:34:50.811Z,98613.28
2022-09-16T06:37:17.885Z,98615.34
2022-09-16T06:39:45.846Z,98616.59
2022-09-16T06:42:13.810Z,98612.38
2022-09-16T06:44:41.559Z,98611.13
2022-09-16T06:47:10.606Z,98618.38
2022-09-16T06:49:37.743Z,98619.03
2022-09-16T06:52:09.718Z,98624.53
2022-09-16T06:54:37.689Z,98634.78
2022-09-16T06:57:06.557Z,98631.78
2022-09-16T06:59:39.030Z,98631.78
2022-09-16T07:02:07.105Z,98628.59
2022-09-16T07:04:41.250Z,98631.78
2022-09-16T07:07:10.015Z,98632.22
2022-09-16T07:09:37.444Z,98633.06
2022-09-16T07:12:06.599Z,98631.97
2022-09-16T07:14:33.536Z,98639.44
2022-09-16T07:17:02.040Z,98641.75
2022-09-16T07:19:30.181Z,98641.38
2022-09-16T07:21:57.630Z,98638.13
2022-09-16T07:24:30.454Z,98644.78
2022-09-16T07:26:57.489Z,98630.84
2022-09-16T07:29:24.612Z,98631.81
2022-09-16T07:31:51.907Z,98640.44
2022-09-16T07:34:20.455Z,98649.81
2022-09-16T07:36:50.290Z,98645.97
2022-09-16T07:39:25.480Z,98653.09
2022-09-16T07:41:52.404Z,98641.44
2022-09-16T07:44:20.864Z,98646.13
2022-09-16T07:46:51.655Z,98656.78
2022-09-16T07:49:18.811Z,98654.38
2022-09-16T07:51:45.858Z,98649.69
2022-09-16T07:54:16.075Z,98645.63
2022-09-16T07:56:44.577Z,98650.00
2022-09-16T07:59:19.071Z,98658.63
2022-09-16T08:01:50.003Z,98656.50
2022-09-16T08:04:18.673Z,98662.19
2022-09-16T08:06:45.782Z,98663.06
2022-09-16T08:09:37.394Z,98650.50
2022-09-16T08:12:04.453Z,98654.19
2022-09-16T08:14:31.496Z,98647.94
2022-09-16T08:17:07.017Z,98656.25
2022-09-16T08:19:34.085Z,98658.09
2022-09-16T08:22:04.204Z,98653.63
2022-09-16T08:24:32.769Z,98649.63
2022-09-16T08:27:21.331Z,98642.66
2022-09-16T08:29:48.479Z,98646.44
2022-09-16T08:32:15.553Z,98642.13
2022-09-16T08:34:53.537Z,98650.28
2022-09-16T08:37:20.634Z,98649.97
2022-09-16T08:39:51.864Z,98651.97
2022-09-16T08:42:35.286Z,98657.03
2022-09-16T08:45:29.305Z,98657.91
2022-09-16T08:48:28.515Z,98664.91
2022-09-16T08:50:59.252Z,98653.25
2022-09-16T08:54:01.758Z,98666.31
2022-09-16T08:56:33.226Z,98664.91
2022-09-16T08:59:02.162Z,98659.34
2022-09-16T09:01:44.432Z,98673.41
2022-09-16T09:04:13.396Z,98664.91
2022-09-16T09:06:41.436Z,98656.69
2022-09-16T09:09:23.594Z,98659.47
2022-09-16T09:11:58.959Z,98652.09
2022-09-16T09:15:04.520Z,98656.72
2022-09-16T09:17:36.997Z,98657.69
2022-09-16T09:20:48.351Z,98650.78
2022-09-16T09:23:44.510Z,98662.78
2022-09-16T09:26:34.312Z,98659.66
2022-09-16T09:29:17.952Z,98655.09
2022-09-16T09:31:58.360Z,98656.22
2022-09-16T09:34:57.830Z,98650.00
2022-09-16T09:38:03.037Z,98648.69
2022-09-16T09:40:41.310Z,98649.91
2022-09-16T09:43:20.514Z,98644.94
2022-09-16T09:46:21.369Z,98641.66
2022-09-16T09:49:13.721Z,98638.38
2022-09-16T09:51:50.044Z,98631.69
2022-09-16T09:54:30.128Z,98639.09
2022-09-16T09:57:20.484Z,98643.69
2022-09-16T10:00:01.416Z,98644.47
2022-09-16T10:02:48.908Z,98644.81
2022-09-16T10:05:26.777Z,98645.97
2022-09-16T10:07:57.899Z,98644.94
2022-09-16T10:10:28.161Z,98632.91
2022-09-16T10:12:55.301Z,98630.00
2022-09-16T10:15:31.199Z,98631.72
2022-09-16T10:18:03.663Z,98626.41
2022-09-16T10:20:36.102Z,98623.91
2022-09-16T10:23:29.029Z,98626.47
2022-09-16T10:26:20.679Z,98625.41
2022-09-16T10:29:01.672Z,98619.56
2022-09-16T10:31:38.037Z,98615.78
2022-09-16T10:34:17.622Z,98609.00
2022-09-16T10:36:44.920Z,98613.41
2022-09-16T10:39:25.196Z,98601.69
2022-09-16T10:41:52.353Z,98615.41
2022-09-16T10:44:35.126Z,98620.09
2022-09-16T10:47:10.638Z,98628.88
2022-09-16T10:49:51.646Z,98618.88
2022-09-16T10:52:27.152Z,98631.03
2022-09-16T10:54:55.018Z,98635.94
2022-09-16T10:57:26.007Z,98631.31
2022-09-16T11:00:20.042Z,98623.19
2022-09-16T11:02:54.930Z,98620.75
2022-09-16T11:05:45.175Z,98618.00
2022-09-16T11:09:02.886Z,98610.44
2022-09-16T11:11:55.708Z,98617.50
2022-09-16T11:14:43.084Z,98611.72
2022-09-16T11:17:42.675Z,98600.31
2022-09-16T11:20:47.388Z,98598.16
2022-09-16T11:23:24.139Z,98588.91
2022-09-16T11:26:19.257Z,98595.28
2022-09-16T11:29:06.399Z,98590.66
2022-09-16T11:31:47.789Z,98593.31
2022-09-16T11:34:33.557Z,98586.81
2022-09-16T11:37:22.397Z,98586.13
2022-09-16T11:40:19.991Z,98592.53
2022-09-16T11:43:25.661Z,98605.69
2022-09-16T11:46:02.905Z,98614.41
2022-09-16T11:48:55.172Z,98627.22
2022-09-16T11:52:08.695Z,98640.91
2022-09-16T11:55:07.444Z,98643.72
2022-09-16T11:57:44.610Z,98634.31
2022-09-16T12:00:19.569Z,98618.38
2022-09-16T12:03:06.683Z,98596.22
2022-09-16T12:05:37.372Z,98603.53
2022-09-16T12:08:25.649Z,98603.44
2022-09-16T12:11:33.216Z,98609.16
2022-09-16T12:14:22.468Z,98608.06
2022-09-16T12:17:08.533Z,98616.66
2022-09-16T12:19:49.546Z,98619.88
2022-09-16T12:22:51.628Z,98621.41
2022-09-16T12:25:47.209Z,98616.69
2022-09-16T12:28:36.198Z,98614.34
2022-09-16T12:31:27.859Z,98607.47
2022-09-16T12:34:15.128Z,98591.66
2022-09-16T12:36:50.222Z,98584.19
2022-09-16T12:39:18.351Z,98581.78
2022-09-16T12:42:14.200Z,98579.28
2022-09-16T12:45:08.711Z,98585.19
2022-09-16T12:47:53.877Z,98577.16
2022-09-16T12:50:47.945Z,98571.34
2022-09-16T12:53:52.681Z,98573.69
2022-09-16T12:56:46.731Z,98566.16
2022-09-16T12:59:35.501Z,98553.97
2022-09-16T13:02:21.189Z,98555.47
2022-09-16T13:04:58.406Z,98549.28
2022-09-16T13:07:36.266Z,98547.13
2022-09-16T13:10:19.036Z,98542.13
2022-09-16T13:12:57.382Z,98550.41
2022-09-16T13:15:36.125Z,98553.03
2022-09-16T13:18:27.241Z,98546.81
2022-09-16T13:20:59.818Z,98532.13
2022-09-16T13:23:33.315Z,98540.59
2022-09-16T13:26:10.119Z,98535.31
2022-09-16T13:28:42.072Z,98536.25
2022-09-16T13:31:28.804Z,98538.03
2022-09-16T13:33:58.872Z,98542.00
2022-09-16T13:36:25.945Z,98531.03
2022-09-16T13:39:14.103Z,98534.25
2022-09-16T13:41:47.719Z,98523.97
2022-09-16T13:44:30.805Z,98513.56
2022-09-16T13:47:10.039Z,98518.50
2022-09-16T13:50:01.280Z,98511.69
2022-09-16T13:52:31.293Z,98522.94
2022-09-16T13:55:12.164Z,98516.84
2022-09-16T13:57:58.888Z,98518.88
2022-09-16T14:00:51.987Z,98518.38
2022-09-16T14:03:31.292Z,98501.78
2022-09-16T14:06:20.971Z,98513.50
2022-09-16T14:08:51.751Z,98521.31
2022-09-16T14:11:27.965Z,98516.66
2022-09-16T14:14:06.219Z,98508.34
2022-09-16T14:16:36.269Z,98500.91
2022-09-16T14:19:07.998Z,98502.00
2022-09-16T14:21:35.150Z,98494.34
2022-09-16T14:24:20.193Z,98497.06
2022-09-16T14:26:55.080Z,98488.88
2022-09-16T14:29:28.181Z,98490.84
2022-09-16T14:32:20.466Z,98479.16
2022-09-16T14:35:12.263Z,98488.78
2022-09-16T14:37:40.321Z,98468.84
2022-09-16T14:40:15.732Z,98473.56
2022-09-16T14:43:05.353Z,98477.94
2022-09-16T14:45:35.326Z,98473.84
2022-09-16T14:48:08.719Z,98486.44
2022-09-16T14:50:47.449Z,98479.75
2022-09-16T14:53:38.585Z,98483.00
2022-09-16T14:56:06.300Z,98478.91
2022-09-16T14:58:36.253Z,98478.59
2022-09-16T15:01:12.431Z,98471.00
2022-09-16T15:04:04.685Z,98483.59
2022-09-16T15:06:41.580Z,98483.28
2022-09-16T15:09:19.387Z,98494.84
2022-09-16T15:11:54.725Z,98501.34
2022-09-16T15:14:24.060Z,98524.09
2022-09-16T15:16:56.728Z,98520.53
2022-09-16T15:19:36.461Z,98534.75
2022-09-16T15:22:05.496Z,98524.31
2022-09-16T15:24:40.654Z,98515.28
2022-09-16T15:27:10.475Z,98502.78
2022-09-16T15:30:06.185Z,98497.06
2022-09-16T15:32:44.769Z,98490.47
2022-09-16T15:35:25.339Z,98494.41
2022-09-16T15:37:53.967Z,98481.78
2022-09-16T15:40:30.201Z,98488.63
2022-09-16T15:43:17.022Z,98484.38
2022-09-16T15:46:03.345Z,98480.78
2022-09-16T15:48:36.932Z,98484.16
2022-09-16T15:51:11.015Z,98476.41
2022-09-16T15:53:43.569Z,98486.69
2022-09-16T15:56:30.906Z,98487.00
2022-09-16T15:59:26.222Z,98486.69
2022-09-16T16:01:58.638Z,98489.34
2022-09-16T16:04:32.063Z,98479.00
2022-09-16T16:07:02.687Z,98479.16
2022-09-16T16:09:29.646Z,98473.50
2022-09-16T16:11:57.376Z,98479.84
2022-09-16T16:14:32.649Z,98472.88
2022-09-16T16:17:21.412Z,98477.47
2022-09-16T16:19:57.862Z,98478.03
2022-09-16T16:22:27.222Z,98478.44
2022-09-16T16:24:54.329Z,98474.31
2022-09-16T16:27:21.357Z,98476.56
2022-09-16T16:29:48.341Z,98472.47
2022-09-16T16:32:16.826Z,98473.53
2022-09-16T16:34:47.695Z,98476.28
2022-09-16T16:37:40.406Z,98489.38
2022-09-16T16:40:07.865Z,98481.25
2022-09-16T16:42:36.039Z,98484.13
2022-09-16T16:45:04.397Z,98480.75
2022-09-16T16:47:32.616Z,98473.66
2022-09-16T16:50:06.083Z,98483.38
2022-09-16T16:52:39.327Z,98482.25
2022-09-16T16:55:07.406Z,98479.09
2022-09-16T16:57:34.400Z,98478.47
2022-09-16T17:00:04.413Z,98490.16
2022-09-16T17:02:31.579Z,98508.78
2022-09-16T17:04:59.859Z,98520.25
2022-09-16T17:07:27.966Z,98533.31
2022-09-16T17:09:59.714Z,98555.72
2022-09-16T17:12:27.785Z,98577.19
2022-09-16T17:14:55.091Z,98588.63
2022-09-16T17:17:25.391Z,98575.50
2022-09-16T17:19:56.056Z,98548.19
2022-09-16T17:22:23.372Z,98515.31
2022-09-16T17:24:50.335Z,98505.75
2022-09-16T17:27:20.023Z,98521.34
2022-09-16T17:29:47.198Z,98530.28
2022-09-16T17:32:14.172Z,98529.59
2022-09-16T17:34:41.803Z,98534.72
2022-09-16T17:37:14.810Z,98529.63
2022-09-16T17:39:42.086Z,98534.81
2022-09-16T17:42:09.097Z,98528.72
2022-09-16T17:44:36.079Z,98523.91
2022-09-16T17:47:03.987Z,98528.63
2022-09-16T17:49:31.382Z,98522.22
2022-09-16T17:51:59.079Z,98518.09
2022-09-16T17:54:26.061Z,98519.34
2022-09-16T17:56:53.102Z,98523.00
2022-09-16T17:59:22.199Z,98514.72
2022-09-16T18:01:57.295Z,98515.47
2022-09-16T18:04:25.353Z,98515.72
2022-09-16T18:06:52.529Z,98512.97
2022-09-16T18:09:19.570Z,98511.69
2022-09-16T18:11:47.062Z,98518.16
2022-09-16T18:14:15.020Z,98522.69
2022-09-16T18:16:51.265Z,98511.19
2022-09-16T18:19:18.438Z,98514.81
2022-09-16T18:21:45.487Z,98515.84
2022-09-16T18:24:13.455Z,98514.38
2022-09-16T18:26:50.765Z,98510.59
2022-09-16T18:29:24.012Z,98520.66
2022-09-16T18:31:54.860Z,98518.22
2022-09-16T18:34:33.371Z,98510.16
2022-09-16T18:37:01.961Z,98517.72
2022-09-16T18:39:29.204Z,98516.22
2022-09-16T18:41:56.767Z,98523.81
2022-09-16T18:44:24.054Z,98524.47
2022-09-16T18:46:53.514Z,98528.31
2022-09-16T18:49:22.450Z,98529.47
2022-09-16T18:51:52.315Z,98524.72
2022-09-16T18:54:29.083Z,98523.25
2022-09-16T18:57:01.493Z,98519.47
2022-09-16T18:59:31.719Z,98534.78
2022-09-16T19:02:01.281Z,98531.03
2022-09-16T19:04:31.912Z,98541.78
2022-09-16T19:07:07.577Z,98538.16
2022-09-16T19:09:36.525Z,98548.50
2022-09-16T19:12:04.314Z,98549.13
2022-09-16T19:14:31.311Z,98542.50
2022-09-16T19:16:58.265Z,98543.78
2022-09-16T19:19:25.336Z,98552.28
2022-09-16T19:21:52.448Z,98545.47
2022-09-16T19:24:22.524Z,98551.16
2022-09-16T19:26:51.594Z,98552.47
2022-09-16T19:29:19.561Z,98552.44
2022-09-16T19:31:49.680Z,98550.94
2022-09-16T19:34:17.199Z,98554.53
2022-09-16T19:36:44.623Z,98547.16
2022-09-16T19:39:12.658Z,98549.09
2022-09-16T19:41:41.547Z,98547.34
2022-09-16T19:44:13.112Z,98554.19
2022-09-16T19:46:43.063Z,98556.63
2022-09-16T19:49:16.195Z,98555.13
2022-09-16T19:51:43.527Z,98545.91
2022-09-16T19:54:11.135Z,98552.06
2022-09-16T19:56:38.145Z,98549.47
2022-09-16T19:59:05.410Z,98537.06
2022-09-16T20:01:34.726Z,98541.31
2022-09-16T20:04:03.688Z,98553.22
2022-09-16T20:06:37.743Z,98544.31
2022-09-16T20:09:09.291Z,98543.88
2022-09-16T20:12:00.164Z,98548.31
2022-09-16T20:14:38.344Z,98547.28
2022-09-16T20:17:36.427Z,98541.56
2022-09-16T20:20:08.349Z,98541.31
2022-09-16T20:22:35.361Z,98547.78
2022-09-16T20:25:21.781Z,98549.06
2022-09-16T20:27:49.831Z,98554.31
2022-09-16T20:30:25.746Z,98552.19
2022-09-16T20:33:06.582Z,98555.94
2022-09-16T20:35:34.112Z,98555.94
2022-09-16T20:38:02.750Z,98546.97
2022-09-16T20:40:38.771Z,98549.47
2022-09-16T20:43:16.477Z,98551.41
2022-09-16T20:45:44.892Z,98555.69
2022-09-16T20:48:12.948Z,98564.56
2022-09-16T20:50:51.007Z,98561.47
2022-09-16T20:53:18.199Z,98564.13
2022-09-16T20:55:45.197Z,98564.16
2022-09-16T20:58:23.511Z,98563.78
2022-09-16T21:00:50.641Z,98566.41
2022-09-16T21:03:27.675Z,98569.56
2022-09-16T21:06:01.003Z,98562.50
2022-09-16T21:08:33.867Z,98568.78
2022-09-16T21:11:12.766Z,98567.84
2022-09-16T21:13:44.636Z,98560.50
2022-09-16T21:16:15.703Z,98565.47
2022-09-16T21:18:44.782Z,98563.34
2022-09-16T21:21:18.027Z,98557.56
2022-09-16T21:23:50.216Z,98549.63
2022-09-16T21:26:20.747Z,98550.41
2022-09-16T21:29:02.502Z,98559.19
2022-09-16T21:31:33.703Z,98557.34
2022-09-16T21:34:03.312Z,98560.63
2022-09-16T21:36:31.529Z,98565.97
2022-09-16T21:38:59.415Z,98567.69
2022-09-16T21:41:26.848Z,98563.31
2022-09-16T21:43:55.945Z,98562.56
2022-09-16T21:46:28.678Z,98566.56
2022-09-16T21:49:07.202Z,98571.78
2022-09-16T21:51:38.511Z,98574.41
2022-09-16T21:54:19.899Z,98574.19
2022-09-16T21:56:53.099Z,98570.13
2022-09-16T21:59:20.536Z,98572.22
2022-09-16T22:01:49.731Z,98567.34
2022-09-16T22:04:21.550Z,98565.03
2022-09-16T22:06:56.220Z,98560.03
2022-09-16T22:09:25.294Z,98571.03
2022-09-16T22:12:15.282Z,98566.06
2022-09-16T22:14:49.058Z,98564.06
2022-09-16T22:17:16.125Z,98566.13
2022-09-16T22:19:43.213Z,98572.34
2022-09-16T22:22:18.417Z,98568.63
2022-09-16T22:24:53.425Z,98569.03
2022-09-16T22:27:20.548Z,98566.69
2022-09-16T22:29:47.552Z,98561.66
2022-09-16T22:32:20.763Z,98568.75
2022-09-16T22:34:48.111Z,98563.91
2022-09-16T22:37:21.330Z,98570.72
2022-09-16T22:40:22.930Z,98569.03
2022-09-16T22:42:51.148Z,98560.66
2022-09-16T22:45:24.335Z,98568.84
2022-09-16T22:47:53.401Z,98562.34
2022-09-16T22:50:25.566Z,98560.69
2022-09-16T22:53:17.806Z,98565.84
2022-09-16T22:55:45.191Z,98553.03
2022-09-16T22:58:12.199Z,98553.47
2022-09-16T23:00:40.591Z,98558.66
2022-09-16T23:03:11.738Z,98563.50
2022-09-16T23:05:39.811Z,98563.00
2022-09-16T23:08:47.804Z,98563.25
2022-09-16T23:11:24.029Z,98560.16
2022-09-16T23:13:53.022Z,98558.81
2022-09-16T23:16:33.175Z,98563.69
2022-09-16T23:19:04.005Z,98559.78
2022-09-16T23:21:33.385Z,98559.63
2022-09-16T23:24:18.288Z,98548.66
2022-09-16T23:26:52.370Z,98554.13
2022-09-16T23:29:22.388Z,98552.25
2022-09-16T23:31:58.415Z,98561.50
2022-09-16T23:34:25.447Z,98555.22
2022-09-16T23:36:53.534Z,98555.69
2022-09-16T23:39:20.835Z,98553.44
2022-09-16T23:42:07.248Z,98549.63
2022-09-16T23:44:34.244Z,98546.69
2022-09-16T23:47:07.312Z,98547.78
2022-09-16T23:49:34.311Z,98548.38
2022-09-16T23:52:01.301Z,98541.91
2022-09-16T23:54:40.710Z,98548.22
2022-09-16T23:57:07.723Z,98544.63
2022-09-16T23:59:36.807Z,98541.91
